Fredville, Kentucky
Current Conditions -  °F | °C
As of 3:53 AM on Saturday 20 Dec 2014 (Local Time) from KJKL Reporting Station
Broken Clouds Broken Clouds  
Wind Chill: 20°   Ceiling: 11000
Heat Index: 27°   Visibility: 10mi
Dew Point: 22°   Wind: 6mph
Humidity: 81%   Direction: 40°NE
Pressure: 30.19"   Gusts: NA
Location:  37.7261°N, 83.0786°W
Report Text: KJKL 200853Z AUTO 04005KT 10SM BKN110 M03/M06 A3019 RMK AO2 SLP233 T10281056 56007
Loading
Personal Weather Stations






























Interactive Weather Map New forecast layout! Learn more

10-Day Weather Forecast

Advertisements
Track Severe Weather on mobile